createdAt,value
2018-11-28T00:05:01.184Z,36.20
2018-11-28T00:11:06.374Z,49.30
2018-11-28T00:17:11.153Z,41.47
2018-11-28T00:23:16.861Z,46.57
2018-11-28T00:31:53.850Z,47.50
2018-11-28T00:37:58.608Z,48.23
2018-11-28T00:44:04.118Z,45.93
2018-11-28T00:50:13.686Z,44.50
2018-11-28T00:56:18.762Z,50.60
2018-11-28T01:02:23.494Z,41.93
2018-11-28T01:08:28.597Z,44.60
2018-11-28T01:14:33.363Z,52.87
2018-11-28T01:20:38.978Z,46.60
2018-11-28T01:26:44.098Z,42.10
2018-11-28T01:32:49.288Z,41.30
2018-11-28T01:38:54.428Z,43.03
2018-11-28T01:44:59.201Z,39.47
2018-11-28T01:51:04.171Z,39.17
2018-11-28T01:57:09.230Z,47.30
2018-11-28T02:03:13.939Z,38.40
2018-11-28T02:09:19.519Z,38.57
2018-11-28T02:15:25.897Z,39.77
2018-11-28T02:21:31.252Z,44.40
2018-11-28T02:27:36.057Z,44.53
2018-11-28T02:33:41.274Z,40.40
2018-11-28T02:39:46.052Z,33.63
2018-11-28T02:46:07.527Z,45.00
2018-11-28T02:52:12.217Z,36.97
2018-11-28T02:58:17.050Z,44.87
2018-11-28T03:04:22.147Z,40.30
2018-11-28T03:10:27.723Z,42.30
2018-11-28T03:16:32.461Z,44.90
2018-11-28T03:22:37.251Z,37.33
2018-11-28T03:28:41.992Z,41.50
2018-11-28T03:34:46.774Z,39.47
2018-11-28T03:40:51.859Z,44.90
2018-11-28T03:46:56.924Z,41.93
2018-11-28T03:53:01.927Z,40.47
2018-11-28T03:59:07.753Z,44.43
2018-11-28T04:05:13.293Z,47.33
2018-11-28T04:11:18.310Z,39.23
2018-11-28T04:17:30.050Z,45.90
2018-11-28T04:23:35.392Z,44.40
2018-11-28T04:29:40.642Z,44.03
2018-11-28T04:35:45.728Z,42.40
2018-11-28T04:41:50.779Z,43.20
2018-11-28T04:47:58.132Z,42.80
2018-11-28T04:54:03.365Z,47.17
2018-11-28T05:00:15.044Z,40.77
2018-11-28T05:07:41.011Z,44.30
2018-11-28T05:13:48.010Z,39.97
2018-11-28T05:19:54.437Z,41.73
2018-11-28T05:25:59.545Z,40.17
2018-11-28T05:32:05.683Z,42.00
2018-11-28T05:38:13.673Z,40.37
2018-11-28T05:44:20.156Z,42.37
2018-11-28T05:50:31.873Z,45.77
2018-11-28T05:56:38.484Z,40.73
2018-11-28T06:02:45.073Z,36.73
2018-11-28T06:08:50.667Z,45.30
2018-11-28T06:14:56.525Z,49.73
2018-11-28T06:21:01.916Z,47.67
2018-11-28T06:27:08.477Z,55.30
2018-11-28T06:33:13.878Z,41.17
2018-11-28T06:39:19.932Z,47.40
2018-11-28T06:45:26.208Z,46.50
2018-11-28T06:51:31.361Z,44.73
2018-11-28T06:57:37.354Z,48.77
2018-11-28T07:03:47.797Z,40.70
2018-11-28T07:12:24.523Z,46.97
2018-11-28T07:18:45.975Z,48.90
2018-11-28T07:24:51.166Z,46.03
2018-11-28T07:30:56.141Z,43.50
2018-11-28T07:37:01.647Z,50.70
2018-11-28T07:43:10.166Z,51.80
2018-11-28T07:49:14.908Z,41.90
2018-11-28T07:55:19.695Z,48.77
2018-11-28T08:01:24.417Z,44.10
2018-11-28T08:07:29.657Z,40.00
2018-11-28T08:13:34.796Z,41.57
2018-11-28T08:19:40.162Z,44.73
2018-11-28T08:25:45.655Z,44.33
2018-11-28T08:31:49.932Z,43.50
2018-11-28T08:37:55.708Z,34.90
2018-11-28T08:44:00.785Z,44.90
2018-11-28T08:50:08.669Z,40.20
2018-11-28T08:56:13.526Z,44.40
2018-11-28T09:02:18.646Z,33.43
2018-11-28T09:08:23.557Z,37.53
2018-11-28T09:14:28.740Z,37.00
2018-11-28T09:20:34.270Z,40.27
2018-11-28T09:26:38.953Z,35.80
2018-11-28T09:32:44.137Z,43.73
2018-11-28T09:38:48.993Z,38.80
2018-11-28T09:44:54.499Z,35.70
2018-11-28T09:50:59.381Z,39.67
2018-11-28T09:57:04.092Z,40.13
2018-11-28T10:03:09.194Z,40.30
2018-11-28T10:09:14.634Z,35.97
2018-11-28T10:15:23.705Z,32.00
2018-11-28T10:21:28.436Z,37.70
2018-11-28T10:27:33.535Z,40.73
2018-11-28T10:33:38.253Z,34.47
2018-11-28T10:39:42.928Z,34.47
2018-11-28T10:45:47.657Z,42.53
2018-11-28T10:51:52.396Z,41.47
2018-11-28T10:57:57.980Z,37.90
2018-11-28T11:04:08.141Z,29.40
2018-11-28T11:10:18.678Z,33.67
2018-11-28T11:16:28.535Z,36.97
2018-11-28T11:22:33.691Z,33.57
2018-11-28T11:28:39.116Z,32.40
2018-11-28T11:34:43.844Z,34.17
2018-11-28T11:40:48.603Z,27.27
2018-11-28T11:46:54.078Z,32.93
2018-11-28T11:52:58.808Z,29.87
2018-11-28T11:59:03.902Z,31.90
2018-11-28T12:05:10.661Z,30.50
2018-11-28T12:11:15.939Z,27.47
2018-11-28T12:17:20.641Z,25.27
2018-11-28T12:23:25.408Z,26.90
2018-11-28T12:29:30.189Z,32.37
2018-11-28T12:35:35.491Z,22.30
2018-11-28T12:41:40.477Z,22.40
2018-11-28T12:47:46.710Z,24.20
2018-11-28T12:53:51.526Z,20.77
2018-11-28T12:59:56.222Z,21.13
2018-11-28T13:06:01.026Z,23.57
2018-11-28T13:12:06.399Z,30.47
2018-11-28T13:18:12.062Z,26.93
2018-11-28T13:24:16.786Z,26.70
2018-11-28T13:30:23.159Z,24.53
2018-11-28T13:36:27.881Z,27.03
2018-11-28T13:42:32.942Z,27.37
2018-11-28T13:48:37.603Z,31.53
2018-11-28T13:55:36.994Z,31.37
2018-11-28T14:00:47.048Z,28.90
2018-11-28T14:06:52.033Z,29.70
2018-11-28T14:12:56.773Z,35.17
2018-11-28T14:19:01.636Z,34.73
2018-11-28T14:25:07.878Z,33.93
2018-11-28T14:31:12.882Z,40.60
2018-11-28T14:37:17.618Z,32.30
2018-11-28T14:43:23.051Z,31.57
2018-11-28T14:49:27.829Z,34.50
2018-11-28T14:55:38.624Z,29.33
2018-11-28T15:01:43.643Z,30.23
2018-11-28T15:07:49.509Z,32.70
2018-11-28T15:13:54.246Z,33.73
2018-11-28T15:19:59.514Z,30.63
2018-11-28T15:26:04.866Z,33.50
2018-11-28T15:32:09.613Z,31.47
2018-11-28T15:38:14.889Z,35.27
2018-11-28T15:44:19.981Z,33.63
2018-11-28T15:50:24.503Z,37.30
2018-11-28T15:56:29.424Z,31.63
2018-11-28T16:02:34.234Z,40.27
2018-11-28T16:08:39.395Z,37.03
2018-11-28T16:14:44.396Z,40.80
2018-11-28T16:20:49.967Z,41.77
2018-11-28T16:26:54.744Z,45.13
2018-11-28T16:32:59.574Z,37.23
2018-11-28T16:39:08.362Z,35.07
2018-11-28T16:45:19.272Z,36.83
2018-11-28T16:51:24.003Z,38.73
2018-11-28T16:57:28.814Z,33.53
2018-11-28T17:03:33.961Z,34.37
2018-11-28T17:09:38.701Z,39.20
2018-11-28T17:15:43.679Z,41.83
2018-11-28T17:21:48.518Z,35.90
2018-11-28T17:27:53.386Z,34.23
2018-11-28T17:33:58.687Z,32.57
2018-11-28T17:40:03.968Z,39.93
2018-11-28T17:46:08.741Z,34.87
2018-11-28T17:52:13.833Z,34.20
2018-11-28T17:58:18.574Z,32.57
2018-11-28T18:04:23.306Z,33.37
2018-11-28T18:10:29.164Z,33.20
2018-11-28T18:16:33.931Z,31.53
2018-11-28T18:22:39.015Z,30.40
2018-11-28T18:28:44.608Z,31.20
2018-11-28T18:34:49.828Z,36.17
2018-11-28T18:40:54.571Z,36.27
2018-11-28T18:46:59.337Z,39.37
2018-11-28T18:53:04.141Z,58.57
2018-11-28T18:59:09.233Z,46.13
2018-11-28T19:05:14.048Z,36.10
2018-11-28T19:11:20.091Z,37.43
2018-11-28T19:17:24.867Z,44.57
2018-11-28T19:23:30.632Z,49.60
2018-11-28T19:29:35.560Z,38.67
2018-11-28T19:35:40.432Z,31.80
2018-11-28T19:41:45.281Z,39.73
2018-11-28T19:47:50.043Z,38.80
2018-11-28T19:53:54.859Z,40.40
2018-11-28T19:59:59.955Z,42.77
2018-11-28T20:06:04.779Z,37.03
2018-11-28T20:12:09.900Z,41.33
2018-11-28T20:18:14.704Z,37.83
2018-11-28T20:24:19.431Z,34.93
2018-11-28T20:30:34.087Z,38.17
2018-11-28T20:36:38.866Z,34.97
2018-11-28T20:42:46.118Z,36.63
2018-11-28T20:48:50.957Z,43.97
2018-11-28T20:54:55.654Z,41.90
2018-11-28T21:01:01.185Z,39.50
2018-11-28T21:07:05.977Z,39.70
2018-11-28T21:13:14.399Z,37.50
2018-11-28T21:19:20.172Z,31.77
2018-11-28T21:25:25.644Z,35.40
2018-11-28T21:31:30.405Z,31.13
2018-11-28T21:37:35.154Z,41.27
2018-11-28T21:43:41.007Z,40.47
2018-11-28T21:49:45.745Z,39.57
2018-11-28T21:55:50.450Z,36.73
2018-11-28T22:01:55.438Z,42.10
2018-11-28T22:08:00.177Z,33.20
2018-11-28T22:14:06.507Z,39.00
2018-11-28T22:20:15.494Z,36.30
2018-11-28T22:26:20.761Z,43.63
2018-11-28T22:32:25.498Z,54.60
2018-11-28T22:38:30.506Z,49.03
2018-11-28T22:44:35.692Z,67.77
2018-11-28T22:50:41.303Z,45.40
2018-11-28T22:56:46.057Z,42.83
2018-11-28T23:02:56.789Z,39.63
2018-11-28T23:09:01.603Z,38.27
2018-11-28T23:15:08.075Z,39.83
2018-11-28T23:21:13.092Z,38.83
2018-11-28T23:27:18.003Z,40.97
2018-11-28T23:33:23.253Z,36.10
2018-11-28T23:39:28.002Z,37.57
2018-11-28T23:45:33.250Z,35.77
2018-11-28T23:51:38.583Z,39.17
2018-11-28T23:57:43.441Z,28.00
